Time;durP1;ratioP1;P1;durP2;ratioP2;P2;SDS_P1;SDS_P2;PMS_P1;PMS_P2;Temp;Humidity;BMP_temperature;BMP_pressure;BME280_temperature;BME280_humidity;BME280_pressure;Samples;Min_cycle;Max_cycle;Signal;HPM_P1;HPM_P2
2022/08/21 00:01:49;;;;;;;9.18;3.42;;;15.90;99.90;;;;;;4957629;28;20129;-91
2022/08/21 00:04:15;;;;;;;10.18;3.70;;;16.70;99.90;;;;;;4957466;28;20046;-92
2022/08/21 00:06:41;;;;;;;12.43;3.40;;;16.20;99.90;;;;;;4966341;28;20054;-91
2022/08/21 00:09:08;;;;;;;9.50;3.60;;;15.70;99.90;;;;;;4981877;28;20054;-91
2022/08/21 00:11:50;;;;;;;12.60;3.97;;;16.20;99.90;;;;;;4960768;28;20046;-92
2022/08/21 00:14:16;;;;;;;9.60;3.75;;;16.00;99.90;;;;;;4962199;28;20061;-91
2022/08/21 00:16:42;;;;;;;10.68;3.97;;;16.30;99.90;;;;;;4967845;28;20047;-93
2022/08/21 00:19:16;;;;;;;11.32;3.85;;;15.50;99.90;;;;;;4962670;28;20113;-91
2022/08/21 00:21:42;;;;;;;9.90;3.90;;;15.50;99.90;;;;;;4979373;28;20042;-91
2022/08/21 00:24:08;;;;;;;11.23;4.10;;;15.90;99.90;;;;;;4961450;28;20058;-92
2022/08/21 00:26:34;;;;;;;10.38;3.60;;;15.50;99.90;;;;;;4960801;28;20544;-91
2022/08/21 00:29:13;;;;;;;15.25;4.18;;;16.10;99.90;;;;;;4962387;28;20495;-92
2022/08/21 00:31:39;;;;;;;10.98;3.92;;;15.40;99.90;;;;;;4991493;28;20050;-91
2022/08/21 00:34:06;;;;;;;10.40;3.80;;;15.50;99.90;;;;;;4972911;28;20097;-90
2022/08/21 00:36:48;;;;;;;12.70;4.10;;;16.10;99.90;;;;;;4960845;28;20077;-91
2022/08/21 00:39:14;;;;;;;13.07;4.38;;;15.60;99.90;;;;;;4959503;28;20372;-91
2022/08/21 00:41:41;;;;;;;12.73;4.50;;;15.30;99.90;;;;;;4977009;28;20109;-92
2022/08/21 00:44:16;;;;;;;10.93;4.35;;;15.10;99.90;;;;;;4959565;28;20081;-91
2022/08/21 00:46:42;;;;;;;12.05;4.30;;;15.20;99.90;;;;;;4958995;28;20047;-92
2022/08/21 00:49:11;;;;;;;9.75;4.60;;;15.60;99.90;;;;;;4977321;28;20071;-91
2022/08/21 00:51:59;;;;;;;14.55;5.45;;;14.90;99.90;;;;;;4976616;28;20043;-91
2022/08/21 00:54:27;;;;;;;10.98;5.05;;;15.20;99.90;;;;;;4976093;28;20105;-91
2022/08/21 00:57:20;;;;;;;12.63;4.60;;;15.10;99.90;;;;;;4959658;28;20081;-92
2022/08/21 01:00:01;;;;;;;15.27;5.13;;;15.00;99.90;;;;;;4960743;28;20053;-92
2022/08/21 01:02:27;;;;;;;12.65;4.97;;;14.90;99.90;;;;;;4959154;28;20082;-91
2022/08/21 01:04:53;;;;;;;12.65;4.95;;;14.80;99.90;;;;;;4977022;28;20046;-92
2022/08/21 01:07:19;;;;;;;11.38;4.85;;;14.90;99.90;;;;;;4959564;28;20054;-91
2022/08/21 01:10:06;;;;;;;13.70;4.95;;;15.60;99.90;;;;;;4959496;28;20050;-91
2022/08/21 01:12:32;;;;;;;11.40;4.88;;;14.70;99.90;;;;;;4958655;28;20039;-91
2022/08/21 01:14:58;;;;;;;14.45;5.25;;;15.50;99.90;;;;;;4933507;23;20052;-91
2022/08/21 01:17:49;;;;;;;13.38;5.60;;;15.50;99.90;;;;;;4919236;29;20420;-91
2022/08/21 01:20:16;;;;;;;16.08;5.78;;;14.70;99.90;;;;;;4920303;29;20044;-91
2022/08/21 01:22:54;;;;;;;13.88;7.00;;;15.30;99.90;;;;;;4919719;29;20142;-92
2022/08/21 01:25:20;;;;;;;13.88;6.43;;;15.70;99.90;;;;;;4926215;29;20047;-91
2022/08/21 01:28:11;;;;;;;14.25;7.00;;;15.00;99.90;;;;;;4920733;29;20055;-91
2022/08/21 01:30:38;;;;;;;14.25;7.10;;;15.40;99.90;;;;;;4936828;29;20500;-90
2022/08/21 01:33:23;;;;;;;13.20;7.35;;;15.60;99.90;;;;;;4920739;29;20036;-92
2022/08/21 01:35:49;;;;;;;14.82;7.63;;;15.40;99.90;;;;;;4938345;29;20168;-91
2022/08/21 01:38:15;;;;;;;16.98;6.80;;;15.30;99.90;;;;;;4920305;29;20077;-91
2022/08/21 01:40:53;;;;;;;14.63;7.70;;;15.00;99.90;;;;;;4939661;29;20488;-92
2022/08/21 01:43:18;;;;;;;16.38;8.27;;;15.30;99.90;;;;;;4936573;29;20126;-91
2022/08/21 01:45:44;;;;;;;16.00;8.50;;;15.10;99.90;;;;;;4937969;29;20067;-91
2022/08/21 01:48:10;;;;;;;13.80;8.25;;;15.20;99.90;;;;;;4923027;29;20576;-91
2022/08/21 01:50:52;;;;;;;18.00;8.32;;;15.20;99.90;;;;;;4919300;29;20044;-91
2022/08/21 01:53:17;;;;;;;17.48;8.52;;;14.90;99.90;;;;;;4922526;29;20102;-91
2022/08/21 01:55:44;;;;;;;14.57;8.35;;;15.00;99.90;;;;;;4939692;29;20071;-91
2022/08/21 01:58:09;;;;;;;17.17;9.25;;;15.30;99.90;;;;;;4919453;29;20047;-91
2022/08/21 02:00:50;;;;;;;13.25;7.70;;;15.10;99.90;;;;;;4919624;29;20039;-90
2022/08/21 02:03:16;;;;;;;17.67;8.95;;;14.50;99.90;;;;;;4941035;29;20064;-91
2022/08/21 02:05:41;;;;;;;16.38;9.00;;;14.60;99.90;;;;;;4939352;29;20039;-91
2022/08/21 02:08:07;;;;;;;17.95;9.27;;;14.90;99.90;;;;;;4937454;29;20024;-91
2022/08/21 02:10:52;;;;;;;17.48;9.55;;;14.90;99.90;;;;;;4929220;29;20197;-91
2022/08/21 02:13:18;;;;;;;18.95;10.05;;;14.60;99.90;;;;;;4927064;29;20071;-91
2022/08/21 02:16:09;;;;;;;18.90;10.50;;;14.50;99.90;;;;;;4941943;29;20090;-92
2022/08/21 02:18:36;;;;;;;16.02;10.07;;;14.20;99.90;;;;;;4943543;29;20046;-91
2022/08/21 02:21:14;;;;;;;16.60;9.90;;;14.30;99.90;;;;;;4947476;29;20079;-91
2022/08/21 02:23:40;;;;;;;20.98;11.13;;;14.20;99.90;;;;;;4948358;29;20047;-90
2022/08/21 02:26:07;;;;;;;16.60;10.00;;;14.20;99.90;;;;;;4947048;29;20055;-91
2022/08/21 02:28:33;;;;;;;18.88;9.95;;;14.20;99.90;;;;;;4946275;29;20039;-91
2022/08/21 02:31:14;;;;;;;18.58;10.20;;;14.20;99.90;;;;;;4942077;29;20093;-91
2022/08/21 02:33:40;;;;;;;21.67;11.52;;;14.80;99.90;;;;;;4939485;29;20061;-92
2022/08/21 02:36:08;;;;;;;19.98;10.65;;;14.30;99.90;;;;;;4938181;29;20039;-91
2022/08/21 02:38:49;;;;;;;20.15;11.50;;;14.20;99.90;;;;;;4957095;29;20120;-91
2022/08/21 02:41:18;;;;;;;18.40;10.82;;;14.40;99.90;;;;;;4938120;29;20051;-91
2022/08/21 02:43:45;;;;;;;17.42;10.35;;;14.10;99.90;;;;;;4955693;29;20094;-91
2022/08/21 02:46:25;;;;;;;18.42;10.82;;;14.10;99.90;;;;;;4938369;29;20047;-91
2022/08/21 02:48:51;;;;;;;18.35;10.18;;;14.80;99.90;;;;;;4955835;29;20106;-91
2022/08/21 02:51:19;;;;;;;20.23;11.02;;;14.30;99.90;;;;;;4958931;23;20063;-91
2022/08/21 02:54:00;;;;;;;18.83;10.43;;;14.10;99.90;;;;;;4956661;28;20133;-91
2022/08/21 02:58:54;;;;;;;17.20;10.02;;;14.10;99.90;;;;;;4956881;29;20055;-90
2022/08/21 03:01:20;;;;;;;17.73;10.13;;;13.90;99.90;;;;;;4953236;29;20460;-90
2022/08/21 03:03:58;;;;;;;18.58;11.30;;;14.80;99.90;;;;;;4953549;29;20047;-90
2022/08/21 03:06:24;;;;;;;20.20;10.93;;;14.40;99.90;;;;;;4956856;28;20049;-91
2022/08/21 03:08:50;;;;;;;20.58;10.60;;;13.50;99.90;;;;;;4973895;28;20427;-90
2022/08/21 03:11:31;;;;;;;19.73;11.40;;;14.40;99.90;;;;;;4956927;28;20403;-90
2022/08/21 03:13:57;;;;;;;18.48;10.80;;;13.70;99.90;;;;;;4973906;28;20444;-90
2022/08/21 03:16:22;;;;;;;16.80;10.80;;;14.30;99.90;;;;;;4956765;28;20134;-90
2022/08/21 03:18:48;;;;;;;19.17;11.27;;;13.70;99.90;;;;;;4974351;28;20125;-91
2022/08/21 03:21:30;;;;;;;16.23;10.20;;;14.20;99.90;;;;;;4955724;28;20089;-91
2022/08/21 03:23:55;;;;;;;22.42;11.60;;;14.20;99.90;;;;;;4956820;28;20491;-91
2022/08/21 03:26:21;;;;;;;22.17;11.75;;;14.10;99.90;;;;;;4956645;28;20138;-90
2022/08/21 03:28:48;;;;;;;18.38;11.13;;;13.80;99.90;;;;;;4973424;28;20050;-90
2022/08/21 03:31:30;;;;;;;21.15;11.30;;;13.80;99.90;;;;;;4956866;28;20491;-90
2022/08/21 03:33:56;;;;;;;19.92;11.35;;;13.50;99.90;;;;;;4974500;28;20038;-90
2022/08/21 03:36:37;;;;;;;23.10;11.52;;;14.10;99.90;;;;;;4972919;28;20566;-90
2022/08/21 03:39:03;;;;;;;19.20;11.05;;;14.00;99.90;;;;;;4957109;28;20134;-91
2022/08/21 03:41:29;;;;;;;18.00;11.20;;;13.80;99.90;;;;;;4973633;28;20460;-91
2022/08/21 03:43:54;;;;;;;17.90;10.88;;;13.30;99.90;;;;;;4981292;28;20086;-90
2022/08/21 03:46:44;;;;;;;18.20;10.95;;;13.60;99.90;;;;;;4960498;28;20035;-90
2022/08/21 03:49:10;;;;;;;17.33;10.60;;;13.40;99.90;;;;;;4973876;28;20043;-90
2022/08/21 03:51:51;;;;;;;18.98;10.57;;;13.90;99.90;;;;;;4956141;28;20093;-90
2022/08/21 03:54:17;;;;;;;18.48;10.43;;;13.90;99.90;;;;;;4956382;28;20070;-90
2022/08/21 03:56:42;;;;;;;19.98;10.90;;;13.80;99.90;;;;;;4955760;28;20075;-90
2022/08/21 03:59:24;;;;;;;19.80;10.75;;;13.90;99.90;;;;;;4956521;28;20515;-90
2022/08/21 04:01:58;;;;;;;15.75;10.02;;;14.30;99.90;;;;;;4967829;28;20051;-90
2022/08/21 04:04:43;;;;;;;19.25;11.35;;;13.30;99.90;;;;;;4954920;28;20050;-89
2022/08/21 04:07:08;;;;;;;17.55;10.63;;;13.60;99.90;;;;;;4956013;28;20043;-90
2022/08/21 04:09:49;;;;;;;18.98;10.52;;;13.40;99.90;;;;;;4958757;28;20057;-91
2022/08/21 04:12:15;;;;;;;19.00;11.70;;;13.10;99.90;;;;;;4975466;28;20038;-90
2022/08/21 04:14:41;;;;;;;18.20;11.25;;;13.80;99.90;;;;;;4956833;28;20069;-91
2022/08/21 04:17:07;;;;;;;19.73;11.02;;;13.60;99.90;;;;;;4973781;28;20094;-90
2022/08/21 04:19:35;;;;;;;20.83;12.18;;;13.10;99.90;;;;;;4955320;28;20054;-92
2022/08/21 04:22:03;;;;;;;21.08;11.43;;;14.00;99.90;;;;;;4956301;28;20133;-90
2022/08/21 04:24:28;;;;;;;19.08;10.90;;;13.50;99.90;;;;;;4955912;28;20506;-90
2022/08/21 04:26:54;;;;;;;17.20;10.40;;;13.50;99.90;;;;;;4978295;28;20043;-90
2022/08/21 04:29:35;;;;;;;17.60;10.30;;;13.60;99.90;;;;;;4955994;28;20146;-91
2022/08/21 04:32:01;;;;;;;18.67;11.50;;;14.10;99.90;;;;;;4973656;28;20047;-90
2022/08/21 04:34:26;;;;;;;17.45;10.48;;;13.00;99.90;;;;;;4955800;28;20454;-90
2022/08/21 04:37:07;;;;;;;20.27;10.82;;;13.60;99.90;;;;;;4956261;28;20039;-90
2022/08/21 04:39:33;;;;;;;18.98;12.10;;;13.00;99.90;;;;;;4955395;28;20047;-90
2022/08/21 04:42:08;;;;;;;16.30;10.88;;;13.60;99.90;;;;;;4956351;28;20049;-90
2022/08/21 04:44:34;;;;;;;16.92;11.00;;;12.90;99.90;;;;;;4955880;28;20134;-90
2022/08/21 04:47:00;;;;;;;19.35;11.18;;;13.70;99.90;;;;;;4955542;28;20047;-91
2022/08/21 04:49:26;;;;;;;18.00;11.50;;;13.00;99.90;;;;;;4955843;28;20054;-91
2022/08/21 04:52:04;;;;;;;19.08;11.90;;;13.00;99.90;;;;;;4957680;28;20137;-91
2022/08/21 04:54:30;;;;;;;18.52;11.50;;;13.00;99.90;;;;;;4976888;28;20435;-90
2022/08/21 04:57:03;;;;;;;17.92;11.07;;;13.00;99.90;;;;;;4976544;28;20078;-90
2022/08/21 04:59:50;;;;;;;18.42;11.30;;;13.80;99.90;;;;;;4958417;28;20059;-91
2022/08/21 05:02:16;;;;;;;18.77;11.27;;;14.20;99.90;;;;;;4976540;28;20046;-90
2022/08/21 05:05:00;;;;;;;18.30;11.65;;;13.80;99.90;;;;;;4976715;28;20376;-90
2022/08/21 05:07:29;;;;;;;19.63;11.25;;;13.20;99.90;;;;;;4958409;28;20046;-91
2022/08/21 05:09:55;;;;;;;20.45;11.63;;;13.80;99.90;;;;;;5015806;23;20055;-90
2022/08/21 05:12:46;;;;;;;16.60;10.50;;;13.60;99.90;;;;;;4954656;29;20054;-90
2022/08/21 05:15:27;;;;;;;17.30;10.55;;;13.30;99.90;;;;;;4954985;28;20046;-90
2022/08/21 05:17:53;;;;;;;17.45;10.15;;;13.70;99.90;;;;;;4957252;29;20077;-90
2022/08/21 05:20:19;;;;;;;17.60;10.02;;;14.00;99.90;;;;;;4964969;29;20039;-89
2022/08/21 05:22:45;;;;;;;19.52;9.85;;;13.30;99.90;;;;;;4970570;28;20043;-91
2022/08/21 05:25:20;;;;;;;19.08;10.40;;;13.70;99.90;;;;;;4958662;29;20040;-90
2022/08/21 05:27:46;;;;;;;18.35;9.65;;;13.90;99.90;;;;;;4955097;29;20039;-91
2022/08/21 05:30:12;;;;;;;17.80;9.60;;;13.70;99.90;;;;;;4956111;29;20435;-90
2022/08/21 05:32:56;;;;;;;16.58;9.80;;;13.50;99.90;;;;;;4955422;29;20412;-90
2022/08/21 05:35:21;;;;;;;16.85;9.88;;;13.40;99.90;;;;;;4954487;29;20050;-91
2022/08/21 05:37:56;;;;;;;16.10;9.43;;;13.70;99.90;;;;;;4955402;29;20047;-90
2022/08/21 05:40:23;;;;;;;15.90;8.77;;;13.70;99.90;;;;;;4955211;28;20051;-91
2022/08/21 05:42:53;;;;;;;17.33;9.43;;;14.30;99.90;;;;;;4954618;29;20062;-91
2022/08/21 05:45:28;;;;;;;16.38;9.20;;;14.10;99.90;;;;;;4956032;29;20212;-90
2022/08/21 05:47:54;;;;;;;15.75;8.90;;;14.20;99.90;;;;;;4955053;29;20133;-91
2022/08/21 05:50:37;;;;;;;19.92;9.38;;;14.30;99.90;;;;;;4955627;29;20151;-90
2022/08/21 05:53:03;;;;;;;15.18;9.27;;;14.10;99.90;;;;;;4955566;29;20447;-90
2022/08/21 05:55:29;;;;;;;16.50;8.73;;;14.00;99.90;;;;;;4959538;29;20126;-91
2022/08/21 05:58:10;;;;;;;17.50;9.02;;;14.30;99.90;;;;;;4960418;28;20074;-91
2022/08/21 06:00:36;;;;;;;15.75;7.93;;;14.60;99.90;;;;;;4958180;28;20050;-90
2022/08/21 06:03:25;;;;;;;16.05;8.60;;;14.90;99.90;;;;;;4953990;28;20048;-91
2022/08/21 06:05:52;;;;;;;14.20;8.07;;;14.90;99.90;;;;;;4952306;29;20050;-91
2022/08/21 06:08:30;;;;;;;16.52;8.13;;;15.30;99.90;;;;;;4961000;28;20066;-91
2022/08/21 06:10:59;;;;;;;15.68;8.05;;;15.00;99.90;;;;;;4955918;29;20102;-91
2022/08/21 06:13:25;;;;;;;15.13;7.38;;;15.40;99.90;;;;;;4956123;29;20062;-91
2022/08/21 06:16:08;;;;;;;15.82;8.20;;;15.70;99.90;;;;;;4954819;29;20043;-91
2022/08/21 06:18:35;;;;;;;14.17;7.17;;;14.90;99.90;;;;;;4955396;29;20159;-91
2022/08/21 06:21:16;;;;;;;13.20;6.70;;;15.00;99.90;;;;;;4954710;29;20322;-91
2022/08/21 06:23:43;;;;;;;13.20;6.82;;;15.60;99.90;;;;;;4955638;28;20043;-91
2022/08/21 06:26:10;;;;;;;13.80;6.68;;;15.00;99.90;;;;;;4953738;29;20400;-92
2022/08/21 06:28:37;;;;;;;14.75;6.82;;;16.00;99.90;;;;;;4954355;29;20082;-91
2022/08/21 06:31:28;;;;;;;14.02;6.35;;;15.70;99.90;;;;;;4954758;29;20087;-91
2022/08/21 06:34:12;;;;;;;14.25;5.95;;;15.50;99.90;;;;;;4955576;29;20129;-90
2022/08/21 06:36:38;;;;;;;14.85;6.55;;;15.80;99.90;;;;;;4953925;29;20608;-90
2022/08/21 06:39:04;;;;;;;16.13;6.57;;;15.90;99.90;;;;;;4954572;29;20051;-93
2022/08/21 06:41:42;;;;;;;16.45;6.07;;;16.40;99.90;;;;;;4955397;29;20050;-89
2022/08/21 06:44:07;;;;;;;14.30;6.20;;;16.60;99.90;;;;;;4955539;29;20050;-87
2022/08/21 06:46:33;;;;;;;16.52;6.25;;;16.20;99.90;;;;;;4954762;29;20404;-88
2022/08/21 06:52:43;;;;;;;17.33;6.47;;;16.40;99.90;;;;;;4912669;29;20505;-96
2022/08/21 07:01:51;;;;;;;12.70;5.88;;;16.90;99.90;;;;;;5250864;23;20054;-96
2022/08/21 07:04:46;;;;;;;13.25;5.40;;;17.00;99.90;;;;;;4985819;28;20054;-96
2022/08/21 07:07:19;;;;;;;13.68;5.55;;;17.20;99.90;;;;;;4958257;29;20111;-96
2022/08/21 07:10:06;;;;;;;13.73;5.78;;;17.70;99.90;;;;;;4940711;29;20047;-93
2022/08/21 07:13:42;;;;;;;13.20;5.15;;;17.60;99.90;;;;;;4958770;29;20408;-96
2022/08/21 07:16:44;;;;;;;13.50;5.20;;;17.70;99.90;;;;;;4947952;29;20062;-95
2022/08/21 07:19:19;;;;;;;13.60;5.75;;;17.60;99.90;;;;;;4898641;29;20056;-94
2022/08/21 07:22:27;;;;;;;12.57;5.10;;;18.00;99.90;;;;;;5002575;23;20125;-96
2022/08/21 07:25:18;;;;;;;12.65;5.05;;;18.10;99.90;;;;;;5008364;28;20054;-96
2022/08/21 07:31:21;;;;;;;14.32;4.63;;;18.40;99.90;;;;;;5803756;23;20059;-96
2022/08/21 07:34:39;;;;;;;15.65;4.97;;;18.60;99.90;;;;;;4972986;23;20059;-96
2022/08/21 07:37:30;;;;;;;11.75;4.55;;;18.70;99.90;;;;;;4961187;28;20107;-96
2022/08/21 07:40:06;;;;;;;12.65;4.63;;;18.70;99.90;;;;;;4979230;23;20081;-96
2022/08/21 07:45:56;;;;;;;12.73;4.13;;;19.20;99.90;;;;;;4936453;29;20051;-96
2022/08/21 07:48:43;;;;;;;12.25;3.78;;;19.20;99.90;;;;;;4922475;29;20054;-96
2022/08/21 07:51:38;;;;;;;;;;;;;;;;;;;;;
2022/08/21 07:54:36;;;;;;;11.73;3.75;;;20.10;99.90;;;;;;4887274;29;20051;-96
2022/08/21 07:57:04;;;;;;;12.57;4.18;;;19.90;99.90;;;;;;4963102;23;20499;-96
2022/08/21 08:02:56;;;;;;;;;;;;;;;;;;;;;
2022/08/21 08:06:18;;;;;;;;;;;;;;;;;;;;;
2022/08/21 08:18:02;;;;;;;13.80;3.45;;;20.00;99.90;;;;;;4997294;23;20498;-95
2022/08/21 09:13:41;;;;;;;13.20;3.97;;;21.10;99.90;;;;;;898018;23;20307;-95
2022/08/21 09:23:22;;;;;;;9.75;3.80;;;21.40;99.90;;;;;;5254886;23;20070;-94
2022/08/21 09:53:45;;;;;;;10.30;3.00;;;22.30;99.90;;;;;;4829734;26;20046;-94
2022/08/21 10:07:31;;;;;;;8.30;2.70;;;22.40;99.90;;;;;;4860856;29;20074;-94
2022/08/21 10:10:20;;;;;;;9.70;3.38;;;22.40;99.90;;;;;;4843314;29;20077;-95
2022/08/21 10:13:36;;;;;;;7.93;2.90;;;22.20;99.90;;;;;;4842088;29;20061;-92
2022/08/21 10:35:55;;;;;;;10.13;2.70;;;23.30;99.90;;;;;;5469964;23;20066;-93
2022/08/21 10:52:55;;;;;;;10.30;2.90;;;23.80;99.90;;;;;;5032792;23;20249;-90
2022/08/21 10:56:15;;;;;;;8.80;2.83;;;23.90;99.90;;;;;;4931402;29;20058;-94
2022/08/21 10:59:34;;;;;;;10.98;2.50;;;24.40;99.90;;;;;;4948734;28;20047;-92
2022/08/21 11:08:32;;;;;;;10.25;2.70;;;24.30;99.90;;;;;;4931026;29;20087;-92
2022/08/21 11:11:32;;;;;;;9.57;2.60;;;24.70;99.90;;;;;;4897001;29;20056;-90
2022/08/21 11:14:48;;;;;;;10.75;2.80;;;24.50;99.70;;;;;;4885772;29;20498;-90
2022/08/21 11:17:38;;;;;;;9.45;2.70;;;24.70;99.90;;;;;;4901571;29;20083;-91
2022/08/21 11:24:27;;;;;;;11.48;2.70;;;24.80;99.90;;;;;;4862605;29;20104;-95
2022/08/21 11:27:55;;;;;;;7.82;2.50;;;24.70;99.80;;;;;;4847323;29;20121;-91
2022/08/21 11:38:51;;;;;;;;;;;;;;;;;;;;;
2022/08/21 11:49:04;;;;;;;;;;;;;;;;;;;;;
2022/08/21 11:52:46;;;;;;;8.27;2.00;;;25.20;98.60;;;;;;4843656;29;20093;-92
2022/08/21 11:55:55;;;;;;;9.10;2.25;;;25.30;99.80;;;;;;4877366;29;20524;-93
2022/08/21 11:58:48;;;;;;;8.15;2.15;;;25.40;97.80;;;;;;4896873;29;20052;-93
2022/08/21 12:01:34;;;;;;;11.00;2.53;;;25.10;98.20;;;;;;4883982;29;20116;-88
2022/08/21 12:04:05;;;;;;;8.60;2.10;;;25.20;99.10;;;;;;4888785;29;20148;-87
2022/08/21 12:06:44;;;;;;;8.88;2.28;;;25.30;99.90;;;;;;4903860;29;20437;-87
2022/08/21 12:09:39;;;;;;;8.50;2.20;;;25.40;99.80;;;;;;4894002;29;20064;-85
2022/08/21 12:12:28;;;;;;;9.85;2.38;;;25.60;99.00;;;;;;4931097;29;20063;-92
2022/08/21 12:25:11;;;;;;;8.55;2.00;;;26.50;97.00;;;;;;4903774;29;20135;-94
2022/08/21 12:28:20;;;;;;;7.18;1.90;;;26.60;96.60;;;;;;4898241;29;20052;-96
2022/08/21 12:34:36;;;;;;;7.20;2.30;;;26.70;96.70;;;;;;4977014;23;20047;-95
2022/08/21 12:37:51;;;;;;;7.18;2.10;;;26.80;97.50;;;;;;4965471;28;20059;-96
2022/08/21 12:41:08;;;;;;;;;;;;;;;;;;;;;
2022/08/21 12:44:44;;;;;;;9.90;2.20;;;26.40;97.00;;;;;;4898611;29;20060;-95
2022/08/21 12:54:01;;;;;;;7.57;2.00;;;27.30;95.70;;;;;;4958564;28;20539;-94
2022/08/21 12:57:24;;;;;;;8.32;2.08;;;27.00;95.10;;;;;;4965011;28;20052;-96
2022/08/21 13:00:13;;;;;;;9.02;2.20;;;26.40;95.40;;;;;;4955210;29;20059;-95
2022/08/21 13:03:00;;;;;;;10.52;2.20;;;26.10;96.80;;;;;;4948269;29;20158;-95
2022/08/21 13:11:31;;;;;;;7.53;2.10;;;26.00;96.70;;;;;;4965448;28;20324;-94
2022/08/21 13:14:44;;;;;;;8.27;2.30;;;25.80;97.10;;;;;;4948432;28;20046;-95
2022/08/21 13:17:36;;;;;;;8.93;2.58;;;25.80;97.30;;;;;;4976330;28;20082;-95
2022/08/21 13:20:30;;;;;;;7.85;2.00;;;26.40;96.90;;;;;;4971346;23;20044;-96
2022/08/21 13:29:38;;;;;;;9.80;2.35;;;26.40;95.00;;;;;;4963991;23;20472;-96
2022/08/21 13:32:28;;;;;;;7.43;2.20;;;26.60;96.00;;;;;;4991648;28;20391;-96
2022/08/21 13:35:21;;;;;;;8.18;2.53;;;27.00;96.20;;;;;;4963253;23;20054;-96
2022/08/21 13:41:40;;;;;;;9.48;2.47;;;27.10;96.80;;;;;;4981761;28;20082;-95
2022/08/21 13:44:27;;;;;;;7.90;2.15;;;27.40;95.80;;;;;;4962770;28;20043;-95
2022/08/21 13:47:45;;;;;;;8.75;2.42;;;27.70;95.40;;;;;;4958897;28;20070;-96
2022/08/21 13:50:25;;;;;;;9.40;2.30;;;26.80;95.10;;;;;;4974383;28;20047;-96
2022/08/21 13:53:16;;;;;;;8.40;2.15;;;26.90;95.40;;;;;;4957166;28;20423;-96
2022/08/21 13:55:48;;;;;;;9.40;2.30;;;26.90;94.60;;;;;;4961744;28;20050;-96
2022/08/21 13:58:45;;;;;;;9.67;2.63;;;26.40;94.90;;;;;;5077087;23;20061;-96
2022/08/21 14:01:33;;;;;;;6.78;2.25;;;26.20;95.10;;;;;;4953164;29;20466;-91
2022/08/21 14:11:36;;;;;;;8.75;2.30;;;25.80;96.50;;;;;;4923966;29;20094;-92
2022/08/21 14:14:28;;;;;;;9.20;2.47;;;26.00;97.30;;;;;;4913892;29;20130;-93
2022/08/21 14:17:53;;;;;;;9.30;2.50;;;26.10;96.10;;;;;;4913476;29;20130;-95
2022/08/21 14:23:44;;;;;;;9.95;2.70;;;25.80;96.30;;;;;;5170659;23;20059;-95
2022/08/21 14:26:30;;;;;;;8.73;2.45;;;25.60;95.40;;;;;;4948226;23;20075;-94
2022/08/21 14:29:08;;;;;;;9.27;2.58;;;25.60;95.90;;;;;;4916069;29;20186;-96
2022/08/21 14:31:53;;;;;;;8.98;2.50;;;26.00;96.00;;;;;;4936258;23;20849;-96
2022/08/21 14:34:32;;;;;;;12.35;2.55;;;26.30;96.00;;;;;;4975136;28;20061;-94
2022/08/21 14:37:20;;;;;;;11.85;2.70;;;26.20;96.10;;;;;;4974283;28;20105;-89
2022/08/21 14:41:04;;;;;;;11.43;2.50;;;25.90;95.60;;;;;;4978809;28;20047;-93
2022/08/21 14:43:56;;;;;;;8.15;2.50;;;25.90;96.50;;;;;;4959122;28;20057;-94
2022/08/21 14:46:43;;;;;;;8.23;2.42;;;25.70;96.60;;;;;;4979594;23;20038;-91
2022/08/21 14:49:36;;;;;;;11.32;2.60;;;25.40;96.80;;;;;;5105976;23;20046;-95
2022/08/21 14:52:27;;;;;;;10.32;2.60;;;25.30;97.30;;;;;;5012717;28;20081;-95
2022/08/21 14:55:18;;;;;;;8.73;2.40;;;25.50;97.50;;;;;;4999923;28;20027;-93
2022/08/21 15:01:19;;;;;;;9.35;2.60;;;25.80;97.60;;;;;;4968544;28;20050;-96
2022/08/21 15:04:02;;;;;;;9.52;2.58;;;25.90;96.80;;;;;;4983290;28;20042;-95
2022/08/21 15:06:44;;;;;;;9.70;2.80;;;25.70;96.70;;;;;;4999610;28;20047;-96
2022/08/21 15:09:10;;;;;;;11.80;2.70;;;25.40;96.80;;;;;;4980066;28;20046;-95
2022/08/21 15:11:59;;;;;;;9.98;2.50;;;25.30;97.50;;;;;;4998228;28;20061;-96
2022/08/21 15:15:07;;;;;;;10.23;2.85;;;25.30;96.90;;;;;;4982502;28;20061;-96
2022/08/21 15:18:00;;;;;;;9.00;2.67;;;25.40;97.10;;;;;;4997194;28;20057;-96
2022/08/21 15:20:55;;;;;;;10.52;2.35;;;25.40;97.20;;;;;;4996485;28;20084;-96
2022/08/21 15:23:36;;;;;;;10.40;2.42;;;25.50;97.20;;;;;;4978883;28;20505;-96
2022/08/21 15:26:08;;;;;;;9.55;2.95;;;25.50;98.10;;;;;;4980556;28;20056;-96
2022/08/21 15:28:46;;;;;;;9.52;2.75;;;25.40;98.50;;;;;;4980596;28;20054;-96
2022/08/21 15:31:28;;;;;;;12.48;2.60;;;25.40;98.50;;;;;;4981232;28;20110;-96
2022/08/21 15:34:12;;;;;;;9.45;2.60;;;25.30;98.40;;;;;;4981035;28;20112;-95
2022/08/21 15:36:46;;;;;;;10.60;2.47;;;25.20;98.90;;;;;;4996063;28;20074;-96
2022/08/21 15:39:21;;;;;;;8.70;2.83;;;25.00;98.80;;;;;;4980424;28;20050;-95
2022/08/21 15:41:50;;;;;;;12.30;3.05;;;24.80;99.10;;;;;;4978283;28;20570;-95
2022/08/21 15:44:33;;;;;;;10.00;2.90;;;24.80;99.50;;;;;;4980994;28;20046;-95
2022/08/21 15:47:20;;;;;;;9.68;2.85;;;24.70;99.60;;;;;;4998006;28;20026;-96
2022/08/21 15:50:31;;;;;;;8.88;2.80;;;24.70;99.70;;;;;;5002140;28;20050;-96
2022/08/21 15:54:02;;;;;;;9.20;2.90;;;24.70;99.50;;;;;;4980252;28;20137;-96
2022/08/21 15:56:55;;;;;;;10.98;2.95;;;24.60;99.50;;;;;;4997751;28;20081;-96
2022/08/21 15:59:39;;;;;;;10.48;3.25;;;24.60;99.50;;;;;;4964350;28;20054;-96
2022/08/21 16:02:47;;;;;;;11.65;2.90;;;24.40;99.30;;;;;;5000805;28;20043;-95
2022/08/21 16:05:29;;;;;;;9.95;2.70;;;24.40;99.70;;;;;;4977812;28;20410;-96
2022/08/21 16:08:14;;;;;;;8.07;2.75;;;24.40;99.30;;;;;;4996105;28;20091;-95
2022/08/21 16:11:04;;;;;;;9.35;2.60;;;24.40;99.80;;;;;;4996179;28;20049;-96
2022/08/21 16:13:59;;;;;;;8.82;2.63;;;24.70;99.90;;;;;;4978768;28;20513;-95
2022/08/21 16:16:34;;;;;;;9.60;2.53;;;24.60;99.50;;;;;;4973451;28;20069;-96
2022/08/21 16:19:21;;;;;;;9.88;2.83;;;24.90;99.30;;;;;;4984031;28;20042;-96
2022/08/21 16:22:06;;;;;;;;;;;;;;;;;;;;;
2022/08/21 16:24:55;;;;;;;8.40;2.55;;;24.90;99.50;;;;;;4956409;28;20426;-96
2022/08/21 16:27:35;;;;;;;12.30;2.60;;;24.70;98.90;;;;;;4986933;28;20030;-96
2022/08/21 16:30:22;;;;;;;12.02;2.80;;;24.60;99.20;;;;;;4996087;28;20046;-95
2022/08/21 16:33:00;;;;;;;9.32;2.60;;;24.30;99.90;;;;;;5000056;28;20125;-96
2022/08/21 16:35:42;;;;;;;9.93;2.60;;;24.30;99.30;;;;;;4994559;28;20126;-96
2022/08/21 16:38:23;;;;;;;10.20;3.03;;;24.20;99.60;;;;;;4997135;28;20042;-96
2022/08/21 16:40:58;;;;;;;9.48;2.70;;;24.00;99.90;;;;;;4976624;28;20043;-94
2022/08/21 16:43:44;;;;;;;10.03;2.77;;;24.00;99.90;;;;;;4975741;28;20086;-96
2022/08/21 16:46:25;;;;;;;9.80;2.65;;;23.90;99.90;;;;;;4979458;28;20050;-96
2022/08/21 16:48:51;;;;;;;10.73;2.97;;;23.80;99.90;;;;;;4982406;28;20057;-96
2022/08/21 16:52:08;;;;;;;10.27;2.70;;;23.80;99.90;;;;;;4985068;28;20054;-95
2022/08/21 16:54:59;;;;;;;8.00;2.47;;;23.60;99.70;;;;;;4981815;28;20081;-96
2022/08/21 17:03:20;;;;;;;11.30;2.65;;;23.40;99.90;;;;;;5011170;28;20046;-95
2022/08/21 17:05:58;;;;;;;7.95;2.58;;;23.90;99.90;;;;;;4967914;28;20069;-96
2022/08/21 17:11:59;;;;;;;8.13;2.40;;;23.20;99.90;;;;;;4970212;28;20402;-95
2022/08/21 17:14:46;;;;;;;10.63;2.53;;;23.10;99.90;;;;;;4996866;28;20450;-96
2022/08/21 17:17:24;;;;;;;9.05;2.85;;;23.00;99.90;;;;;;4979645;28;20129;-95
2022/08/21 17:20:08;;;;;;;9.60;2.60;;;23.00;99.90;;;;;;4980325;28;20462;-96
2022/08/21 17:22:53;;;;;;;9.52;2.40;;;22.90;99.90;;;;;;4997924;28;20086;-96
2022/08/21 17:25:28;;;;;;;9.05;2.33;;;22.80;99.90;;;;;;4981427;28;20046;-96
2022/08/21 17:28:42;;;;;;;10.63;2.75;;;22.80;99.90;;;;;;4999265;28;20043;-96
2022/08/21 17:31:08;;;;;;;8.32;2.20;;;22.70;99.90;;;;;;4980796;28;20129;-96
2022/08/21 17:33:57;;;;;;;10.57;2.83;;;23.10;99.90;;;;;;4997397;28;20101;-95
2022/08/21 17:36:46;;;;;;;10.30;2.90;;;22.70;99.90;;;;;;4997285;28;20550;-95
2022/08/21 17:39:12;;;;;;;9.70;2.70;;;22.60;99.90;;;;;;4978694;28;20513;-94
2022/08/21 17:41:53;;;;;;;8.32;2.53;;;22.50;99.90;;;;;;4978702;28;20046;-93
2022/08/21 17:44:32;;;;;;;10.30;3.30;;;22.40;99.90;;;;;;4983485;28;20128;-90
2022/08/21 17:47:23;;;;;;;7.13;2.50;;;22.90;99.90;;;;;;4976725;28;20050;-87
2022/08/21 17:49:58;;;;;;;8.68;2.78;;;22.40;99.90;;;;;;4973511;28;20073;-85
2022/08/21 17:52:26;;;;;;;8.20;2.30;;;22.20;99.90;;;;;;4968675;28;20058;-86
2022/08/21 17:54:52;;;;;;;10.88;2.90;;;22.20;99.90;;;;;;4967404;28;20125;-85
2022/08/21 17:57:34;;;;;;;9.32;2.97;;;21.80;99.90;;;;;;4986512;28;20152;-85
2022/08/21 18:00:13;;;;;;;7.80;2.80;;;22.00;99.90;;;;;;4990733;28;20058;-86
2022/08/21 18:02:40;;;;;;;13.07;2.97;;;21.80;99.90;;;;;;4980632;28;20090;-83